sensor_id;sensor_type;location;lat;lon;timestamp;temperature;humidity
68912;SHT31;55953;51.650;-0.522;2022-12-10T00:01:48;-1.69;85.15
68912;SHT31;55953;51.650;-0.522;2022-12-10T00:04:18;-1.74;85.19
68912;SHT31;55953;51.650;-0.522;2022-12-10T00:06:47;-1.78;85.38
68912;SHT31;55953;51.650;-0.522;2022-12-10T00:09:16;-1.72;85.41
68912;SHT31;55953;51.650;-0.522;2022-12-10T00:11:47;-1.72;85.16
68912;SHT31;55953;51.650;-0.522;2022-12-10T00:14:16;-1.75;85.13
68912;SHT31;55953;51.650;-0.522;2022-12-10T00:16:45;-1.77;85.19
68912;SHT31;55953;51.650;-0.522;2022-12-10T00:19:13;-1.74;85.30
68912;SHT31;55953;51.650;-0.522;2022-12-10T00:21:40;-1.72;85.45
68912;SHT31;55953;51.650;-0.522;2022-12-10T00:24:11;-1.71;85.66
68912;SHT31;55953;51.650;-0.522;2022-12-10T00:26:39;-1.69;85.66
68912;SHT31;55953;51.650;-0.522;2022-12-10T00:29:09;-1.76;85.35
68912;SHT31;55953;51.650;-0.522;2022-12-10T00:31:39;-1.79;85.29
68912;SHT31;55953;51.650;-0.522;2022-12-10T00:34:08;-1.86;85.28
68912;SHT31;55953;51.650;-0.522;2022-12-10T00:36:45;-1.88;85.29
68912;SHT31;55953;51.650;-0.522;2022-12-10T00:39:17;-1.89;85.09
68912;SHT31;55953;51.650;-0.522;2022-12-10T00:41:47;-1.92;85.04
68912;SHT31;55953;51.650;-0.522;2022-12-10T00:44:16;-1.88;85.13
68912;SHT31;55953;51.650;-0.522;2022-12-10T00:46:44;-1.88;85.16
68912;SHT31;55953;51.650;-0.522;2022-12-10T00:49:12;-1.89;85.18
68912;SHT31;55953;51.650;-0.522;2022-12-10T00:51:40;-1.93;85.32
68912;SHT31;55953;51.650;-0.522;2022-12-10T00:54:11;-1.86;85.60
68912;SHT31;55953;51.650;-0.522;2022-12-10T00:56:40;-1.75;85.50
68912;SHT31;55953;51.650;-0.522;2022-12-10T00:59:08;-1.89;84.76
68912;SHT31;55953;51.650;-0.522;2022-12-10T01:01:37;-2.13;84.86
68912;SHT31;55953;51.650;-0.522;2022-12-10T01:04:10;-2.32;85.10
68912;SHT31;55953;51.650;-0.522;2022-12-10T01:06:43;-2.47;85.46
68912;SHT31;55953;51.650;-0.522;2022-12-10T01:09:24;-2.56;85.71
68912;SHT31;55953;51.650;-0.522;2022-12-10T01:11:56;-2.48;85.81
68912;SHT31;55953;51.650;-0.522;2022-12-10T01:14:29;-2.47;85.50
68912;SHT31;55953;51.650;-0.522;2022-12-10T01:17:02;-2.47;85.29
68912;SHT31;55953;51.650;-0.522;2022-12-10T01:19:32;-2.46;85.32
68912;SHT31;55953;51.650;-0.522;2022-12-10T01:22:01;-2.38;85.48
68912;SHT31;55953;51.650;-0.522;2022-12-10T01:24:30;-2.41;85.22
68912;SHT31;55953;51.650;-0.522;2022-12-10T01:26:58;-2.39;85.32
68912;SHT31;55953;51.650;-0.522;2022-12-10T01:29:27;-2.38;85.63
68912;SHT31;55953;51.650;-0.522;2022-12-10T01:31:56;-2.33;85.75
68912;SHT31;55953;51.650;-0.522;2022-12-10T01:34:25;-2.29;85.91
68912;SHT31;55953;51.650;-0.522;2022-12-10T01:36:56;-2.29;85.90
68912;SHT31;55953;51.650;-0.522;2022-12-10T01:39:24;-2.36;85.79
68912;SHT31;55953;51.650;-0.522;2022-12-10T01:41:56;-2.39;85.80
68912;SHT31;55953;51.650;-0.522;2022-12-10T01:46:55;-2.31;86.44
68912;SHT31;55953;51.650;-0.522;2022-12-10T01:49:35;-2.16;86.30
68912;SHT31;55953;51.650;-0.522;2022-12-10T01:52:07;-2.10;86.24
68912;SHT31;55953;51.650;-0.522;2022-12-10T01:54:39;-2.05;86.15
68912;SHT31;55953;51.650;-0.522;2022-12-10T01:57:11;-2.07;86.22
68912;SHT31;55953;51.650;-0.522;2022-12-10T01:59:53;-2.04;86.52
68912;SHT31;55953;51.650;-0.522;2022-12-10T02:11:21;-1.88;87.55
68912;SHT31;55953;51.650;-0.522;2022-12-10T02:14:04;-1.87;87.52
68912;SHT31;55953;51.650;-0.522;2022-12-10T02:16:58;-1.84;87.76
68912;SHT31;55953;51.650;-0.522;2022-12-10T02:22:49;-1.69;87.81
68912;SHT31;55953;51.650;-0.522;2022-12-10T02:25:45;-1.65;87.68
68912;SHT31;55953;51.650;-0.522;2022-12-10T02:28:36;-1.61;88.04
68912;SHT31;55953;51.650;-0.522;2022-12-10T02:31:14;-1.54;88.02
68912;SHT31;55953;51.650;-0.522;2022-12-10T02:33:53;-1.50;87.85
68912;SHT31;55953;51.650;-0.522;2022-12-10T02:36:27;-1.50;87.51
68912;SHT31;55953;51.650;-0.522;2022-12-10T02:39:01;-1.44;87.68
68912;SHT31;55953;51.650;-0.522;2022-12-10T02:41:34;-1.43;87.65
68912;SHT31;55953;51.650;-0.522;2022-12-10T02:44:09;-1.38;87.63
68912;SHT31;55953;51.650;-0.522;2022-12-10T02:46:40;-1.32;87.51
68912;SHT31;55953;51.650;-0.522;2022-12-10T02:49:12;-1.31;87.52
68912;SHT31;55953;51.650;-0.522;2022-12-10T02:51:43;-1.29;87.40
68912;SHT31;55953;51.650;-0.522;2022-12-10T02:57:19;-1.48;86.57
68912;SHT31;55953;51.650;-0.522;2022-12-10T03:00:12;-1.53;86.61
68912;SHT31;55953;51.650;-0.522;2022-12-10T03:11:28;-1.46;86.24
68912;SHT31;55953;51.650;-0.522;2022-12-10T03:14:04;-1.49;86.16
68912;SHT31;55953;51.650;-0.522;2022-12-10T03:16:44;-1.51;86.03
68912;SHT31;55953;51.650;-0.522;2022-12-10T03:19:26;-1.52;86.05
68912;SHT31;55953;51.650;-0.522;2022-12-10T03:22:09;-1.56;85.81
68912;SHT31;55953;51.650;-0.522;2022-12-10T03:24:41;-1.62;86.10
68912;SHT31;55953;51.650;-0.522;2022-12-10T03:27:11;-1.65;86.40
68912;SHT31;55953;51.650;-0.522;2022-12-10T03:29:45;-1.65;86.71
68912;SHT31;55953;51.650;-0.522;2022-12-10T03:32:18;-1.59;86.81
68912;SHT31;55953;51.650;-0.522;2022-12-10T03:34:50;-1.61;86.54
68912;SHT31;55953;51.650;-0.522;2022-12-10T03:37:22;-1.62;86.44
68912;SHT31;55953;51.650;-0.522;2022-12-10T03:39:52;-1.62;86.27
68912;SHT31;55953;51.650;-0.522;2022-12-10T03:42:21;-1.66;86.03
68912;SHT31;55953;51.650;-0.522;2022-12-10T03:44:49;-1.70;86.10
68912;SHT31;55953;51.650;-0.522;2022-12-10T03:47:18;-1.67;86.17
68912;SHT31;55953;51.650;-0.522;2022-12-10T03:49:47;-1.72;85.93
68912;SHT31;55953;51.650;-0.522;2022-12-10T03:52:15;-1.69;86.10
68912;SHT31;55953;51.650;-0.522;2022-12-10T03:54:43;-1.68;85.88
68912;SHT31;55953;51.650;-0.522;2022-12-10T03:57:11;-1.64;86.20
68912;SHT31;55953;51.650;-0.522;2022-12-10T03:59:38;-1.63;85.97
68912;SHT31;55953;51.650;-0.522;2022-12-10T04:02:06;-1.64;85.96
68912;SHT31;55953;51.650;-0.522;2022-12-10T04:04:34;-1.66;85.88
68912;SHT31;55953;51.650;-0.522;2022-12-10T04:07:02;-1.75;85.87
68912;SHT31;55953;51.650;-0.522;2022-12-10T04:09:30;-1.72;86.12
68912;SHT31;55953;51.650;-0.522;2022-12-10T04:11:58;-1.71;86.01
68912;SHT31;55953;51.650;-0.522;2022-12-10T04:14:27;-1.73;86.04
68912;SHT31;55953;51.650;-0.522;2022-12-10T04:17:13;-1.77;85.97
68912;SHT31;55953;51.650;-0.522;2022-12-10T04:19:41;-1.77;85.97
68912;SHT31;55953;51.650;-0.522;2022-12-10T04:22:10;-1.79;85.93
68912;SHT31;55953;51.650;-0.522;2022-12-10T04:24:56;-1.83;85.74
68912;SHT31;55953;51.650;-0.522;2022-12-10T04:27:43;-1.91;85.67
68912;SHT31;55953;51.650;-0.522;2022-12-10T04:30:11;-1.93;85.79
68912;SHT31;55953;51.650;-0.522;2022-12-10T04:32:39;-1.94;86.01
68912;SHT31;55953;51.650;-0.522;2022-12-10T04:35:07;-1.85;86.49
68912;SHT31;55953;51.650;-0.522;2022-12-10T04:37:36;-1.78;86.42
68912;SHT31;55953;51.650;-0.522;2022-12-10T04:40:05;-1.80;86.19
68912;SHT31;55953;51.650;-0.522;2022-12-10T04:42:34;-1.84;86.40
68912;SHT31;55953;51.650;-0.522;2022-12-10T04:45:02;-1.92;86.28
68912;SHT31;55953;51.650;-0.522;2022-12-10T04:47:30;-1.97;86.31
68912;SHT31;55953;51.650;-0.522;2022-12-10T04:49:57;-1.91;86.30
68912;SHT31;55953;51.650;-0.522;2022-12-10T04:52:25;-1.99;86.06
68912;SHT31;55953;51.650;-0.522;2022-12-10T04:54:53;-2.07;86.23
68912;SHT31;55953;51.650;-0.522;2022-12-10T04:57:21;-2.08;86.18
68912;SHT31;55953;51.650;-0.522;2022-12-10T04:59:48;-2.10;86.36
68912;SHT31;55953;51.650;-0.522;2022-12-10T05:02:16;-2.09;86.33
68912;SHT31;55953;51.650;-0.522;2022-12-10T05:04:44;-2.12;85.92
68912;SHT31;55953;51.650;-0.522;2022-12-10T05:07:12;-2.12;85.79
68912;SHT31;55953;51.650;-0.522;2022-12-10T05:09:40;-2.08;85.46
68912;SHT31;55953;51.650;-0.522;2022-12-10T05:12:07;-2.25;85.09
68912;SHT31;55953;51.650;-0.522;2022-12-10T05:14:35;-2.27;85.23
68912;SHT31;55953;51.650;-0.522;2022-12-10T05:17:03;-2.25;85.10
68912;SHT31;55953;51.650;-0.522;2022-12-10T05:19:31;-2.16;85.10
68912;SHT31;55953;51.650;-0.522;2022-12-10T05:21:59;-2.28;84.96
68912;SHT31;55953;51.650;-0.522;2022-12-10T05:24:45;-2.27;85.48
68912;SHT31;55953;51.650;-0.522;2022-12-10T05:27:13;-2.33;85.44
68912;SHT31;55953;51.650;-0.522;2022-12-10T05:29:40;-2.33;85.58
68912;SHT31;55953;51.650;-0.522;2022-12-10T05:32:08;-2.40;85.48
68912;SHT31;55953;51.650;-0.522;2022-12-10T05:34:36;-2.39;85.85
68912;SHT31;55953;51.650;-0.522;2022-12-10T05:37:04;-2.33;86.06
68912;SHT31;55953;51.650;-0.522;2022-12-10T05:39:31;-2.29;85.79
68912;SHT31;55953;51.650;-0.522;2022-12-10T05:41:59;-2.29;85.72
68912;SHT31;55953;51.650;-0.522;2022-12-10T05:44:27;-2.20;85.80
68912;SHT31;55953;51.650;-0.522;2022-12-10T05:46:56;-2.16;85.75
68912;SHT31;55953;51.650;-0.522;2022-12-10T05:49:24;-2.09;85.78
68912;SHT31;55953;51.650;-0.522;2022-12-10T05:51:53;-2.12;85.54
68912;SHT31;55953;51.650;-0.522;2022-12-10T05:54:23;-2.18;85.53
68912;SHT31;55953;51.650;-0.522;2022-12-10T05:56:51;-2.20;85.54
68912;SHT31;55953;51.650;-0.522;2022-12-10T05:59:19;-2.22;85.53
68912;SHT31;55953;51.650;-0.522;2022-12-10T06:01:46;-2.24;85.56
68912;SHT31;55953;51.650;-0.522;2022-12-10T06:04:14;-2.23;85.53
68912;SHT31;55953;51.650;-0.522;2022-12-10T06:06:42;-2.23;85.61
68912;SHT31;55953;51.650;-0.522;2022-12-10T06:09:12;-2.26;85.39
68912;SHT31;55953;51.650;-0.522;2022-12-10T06:11:41;-2.20;85.44
68912;SHT31;55953;51.650;-0.522;2022-12-10T06:14:09;-2.21;85.27
68912;SHT31;55953;51.650;-0.522;2022-12-10T06:16:38;-2.23;85.25
68912;SHT31;55953;51.650;-0.522;2022-12-10T06:19:07;-2.17;85.23
68912;SHT31;55953;51.650;-0.522;2022-12-10T06:21:35;-2.30;84.55
68912;SHT31;55953;51.650;-0.522;2022-12-10T06:24:03;-2.44;84.94
68912;SHT31;55953;51.650;-0.522;2022-12-10T06:26:32;-2.43;85.08
68912;SHT31;55953;51.650;-0.522;2022-12-10T06:29:00;-2.40;85.07
68912;SHT31;55953;51.650;-0.522;2022-12-10T06:31:28;-2.33;84.97
68912;SHT31;55953;51.650;-0.522;2022-12-10T06:33:56;-2.38;84.53
68912;SHT31;55953;51.650;-0.522;2022-12-10T06:36:23;-2.48;84.53
68912;SHT31;55953;51.650;-0.522;2022-12-10T06:38:51;-2.38;84.71
68912;SHT31;55953;51.650;-0.522;2022-12-10T06:41:19;-2.41;84.42
68912;SHT31;55953;51.650;-0.522;2022-12-10T06:43:48;-2.49;84.70
68912;SHT31;55953;51.650;-0.522;2022-12-10T06:46:17;-2.57;84.79
68912;SHT31;55953;51.650;-0.522;2022-12-10T06:48:48;-2.58;84.85
68912;SHT31;55953;51.650;-0.522;2022-12-10T06:51:16;-2.69;84.71
68912;SHT31;55953;51.650;-0.522;2022-12-10T06:53:45;-2.72;84.99
68912;SHT31;55953;51.650;-0.522;2022-12-10T06:56:15;-2.73;85.20
68912;SHT31;55953;51.650;-0.522;2022-12-10T06:58:46;-2.71;85.37
68912;SHT31;55953;51.650;-0.522;2022-12-10T07:01:16;-2.70;85.35
68912;SHT31;55953;51.650;-0.522;2022-12-10T07:03:54;-2.71;85.52
68912;SHT31;55953;51.650;-0.522;2022-12-10T07:06:24;-2.65;85.70
68912;SHT31;55953;51.650;-0.522;2022-12-10T07:08:53;-2.65;85.53
68912;SHT31;55953;51.650;-0.522;2022-12-10T07:11:22;-2.77;85.41
68912;SHT31;55953;51.650;-0.522;2022-12-10T07:13:52;-2.83;85.27
68912;SHT31;55953;51.650;-0.522;2022-12-10T07:16:21;-2.99;85.11
68912;SHT31;55953;51.650;-0.522;2022-12-10T07:18:53;-3.01;85.39
68912;SHT31;55953;51.650;-0.522;2022-12-10T07:21:27;-3.11;85.08
68912;SHT31;55953;51.650;-0.522;2022-12-10T07:24:02;-3.29;85.08
68912;SHT31;55953;51.650;-0.522;2022-12-10T07:26:38;-3.40;85.17
68912;SHT31;55953;51.650;-0.522;2022-12-10T07:29:09;-3.40;85.57
68912;SHT31;55953;51.650;-0.522;2022-12-10T07:31:42;-3.35;85.52
68912;SHT31;55953;51.650;-0.522;2022-12-10T07:34:11;-3.34;85.50
68912;SHT31;55953;51.650;-0.522;2022-12-10T07:36:39;-3.34;85.45
68912;SHT31;55953;51.650;-0.522;2022-12-10T07:39:09;-3.40;85.27
68912;SHT31;55953;51.650;-0.522;2022-12-10T07:41:48;-3.39;85.38
68912;SHT31;55953;51.650;-0.522;2022-12-10T07:44:19;-3.27;85.41
68912;SHT31;55953;51.650;-0.522;2022-12-10T07:46:48;-3.27;85.09
68912;SHT31;55953;51.650;-0.522;2022-12-10T07:49:17;-3.27;84.98
68912;SHT31;55953;51.650;-0.522;2022-12-10T07:51:46;-3.24;85.02
68912;SHT31;55953;51.650;-0.522;2022-12-10T07:54:16;-3.22;84.93
68912;SHT31;55953;51.650;-0.522;2022-12-10T07:56:45;-3.26;84.93
68912;SHT31;55953;51.650;-0.522;2022-12-10T07:59:13;-3.23;85.23
68912;SHT31;55953;51.650;-0.522;2022-12-10T08:01:41;-3.16;85.24
68912;SHT31;55953;51.650;-0.522;2022-12-10T08:04:08;-3.20;84.91
68912;SHT31;55953;51.650;-0.522;2022-12-10T08:06:36;-3.32;84.87
68912;SHT31;55953;51.650;-0.522;2022-12-10T08:09:04;-3.39;85.14
68912;SHT31;55953;51.650;-0.522;2022-12-10T08:11:32;-3.32;85.26
68912;SHT31;55953;51.650;-0.522;2022-12-10T08:13:59;-3.27;85.17
68912;SHT31;55953;51.650;-0.522;2022-12-10T08:16:28;-3.24;85.17
68912;SHT31;55953;51.650;-0.522;2022-12-10T08:18:59;-3.22;85.28
68912;SHT31;55953;51.650;-0.522;2022-12-10T08:21:29;-3.11;85.27
68912;SHT31;55953;51.650;-0.522;2022-12-10T08:24:00;-3.01;85.03
68912;SHT31;55953;51.650;-0.522;2022-12-10T08:26:29;-2.90;84.88
68912;SHT31;55953;51.650;-0.522;2022-12-10T08:28:59;-2.98;84.54
68912;SHT31;55953;51.650;-0.522;2022-12-10T08:31:28;-2.90;84.80
68912;SHT31;55953;51.650;-0.522;2022-12-10T08:34:05;-2.80;84.64
68912;SHT31;55953;51.650;-0.522;2022-12-10T08:36:41;-2.70;84.63
68912;SHT31;55953;51.650;-0.522;2022-12-10T08:39:10;-2.58;84.21
68912;SHT31;55953;51.650;-0.522;2022-12-10T08:41:43;-2.47;84.13
68912;SHT31;55953;51.650;-0.522;2022-12-10T08:44:12;-2.38;84.12
68912;SHT31;55953;51.650;-0.522;2022-12-10T08:46:41;-2.38;83.97
68912;SHT31;55953;51.650;-0.522;2022-12-10T08:49:09;-2.53;83.94
68912;SHT31;55953;51.650;-0.522;2022-12-10T08:51:36;-2.68;84.05
68912;SHT31;55953;51.650;-0.522;2022-12-10T08:54:04;-2.73;84.53
68912;SHT31;55953;51.650;-0.522;2022-12-10T08:56:32;-2.67;84.57
68912;SHT31;55953;51.650;-0.522;2022-12-10T08:59:00;-2.55;84.61
68912;SHT31;55953;51.650;-0.522;2022-12-10T09:01:28;-2.49;84.33
68912;SHT31;55953;51.650;-0.522;2022-12-10T09:03:56;-2.42;84.28
68912;SHT31;55953;51.650;-0.522;2022-12-10T09:06:24;-2.40;84.24
68912;SHT31;55953;51.650;-0.522;2022-12-10T09:08:52;-2.24;84.26
68912;SHT31;55953;51.650;-0.522;2022-12-10T09:11:26;-2.10;84.11
68912;SHT31;55953;51.650;-0.522;2022-12-10T09:13:57;-2.00;84.00
68912;SHT31;55953;51.650;-0.522;2022-12-10T09:16:36;-1.93;84.00
68912;SHT31;55953;51.650;-0.522;2022-12-10T09:19:06;-1.95;84.14
68912;SHT31;55953;51.650;-0.522;2022-12-10T09:21:34;-1.90;84.29
68912;SHT31;55953;51.650;-0.522;2022-12-10T09:24:03;-1.88;84.28
68912;SHT31;55953;51.650;-0.522;2022-12-10T09:26:31;-1.81;84.47
68912;SHT31;55953;51.650;-0.522;2022-12-10T09:28:59;-1.74;84.63
68912;SHT31;55953;51.650;-0.522;2022-12-10T09:31:27;-1.72;84.81
68912;SHT31;55953;51.650;-0.522;2022-12-10T09:33:57;-1.85;84.82
68912;SHT31;55953;51.650;-0.522;2022-12-10T09:36:25;-1.93;85.34
68912;SHT31;55953;51.650;-0.522;2022-12-10T09:39:00;-1.97;85.57
68912;SHT31;55953;51.650;-0.522;2022-12-10T09:44:46;-2.03;85.86
68912;SHT31;55953;51.650;-0.522;2022-12-10T09:47:45;-1.89;86.02
68912;SHT31;55953;51.650;-0.522;2022-12-10T09:50:37;-1.80;85.72
68912;SHT31;55953;51.650;-0.522;2022-12-10T09:53:23;-1.64;85.54
68912;SHT31;55953;51.650;-0.522;2022-12-10T09:55:55;-1.50;85.30
68912;SHT31;55953;51.650;-0.522;2022-12-10T09:58:26;-1.37;85.23
68912;SHT31;55953;51.650;-0.522;2022-12-10T10:03:31;-1.11;85.18
68912;SHT31;55953;51.650;-0.522;2022-12-10T10:06:05;-1.02;85.20
68912;SHT31;55953;51.650;-0.522;2022-12-10T10:08:38;-0.98;85.09
68912;SHT31;55953;51.650;-0.522;2022-12-10T10:11:24;-0.89;85.22
68912;SHT31;55953;51.650;-0.522;2022-12-10T10:13:58;-0.81;85.14
68912;SHT31;55953;51.650;-0.522;2022-12-10T10:16:42;-0.80;85.18
68912;SHT31;55953;51.650;-0.522;2022-12-10T10:19:28;-0.82;85.40
68912;SHT31;55953;51.650;-0.522;2022-12-10T10:22:05;-0.85;85.90
68912;SHT31;55953;51.650;-0.522;2022-12-10T10:24:34;-0.81;86.19
68912;SHT31;55953;51.650;-0.522;2022-12-10T10:27:12;-0.69;86.25
68912;SHT31;55953;51.650;-0.522;2022-12-10T10:29:48;-0.51;86.10
68912;SHT31;55953;51.650;-0.522;2022-12-10T10:32:25;-0.35;85.84
68912;SHT31;55953;51.650;-0.522;2022-12-10T10:35:03;-0.18;85.60
68912;SHT31;55953;51.650;-0.522;2022-12-10T10:40:03;-0.02;84.97
68912;SHT31;55953;51.650;-0.522;2022-12-10T10:42:42;0.01;85.22
68912;SHT31;55953;51.650;-0.522;2022-12-10T10:45:32;0.11;85.23
68912;SHT31;55953;51.650;-0.522;2022-12-10T10:56:31;0.44;85.42
68912;SHT31;55953;51.650;-0.522;2022-12-10T11:01:54;0.50;85.91
68912;SHT31;55953;51.650;-0.522;2022-12-10T11:04:37;0.43;85.89
68912;SHT31;55953;51.650;-0.522;2022-12-10T11:07:35;0.47;86.31
68912;SHT31;55953;51.650;-0.522;2022-12-10T11:10:17;0.61;86.62
68912;SHT31;55953;51.650;-0.522;2022-12-10T11:12:59;0.75;86.39
68912;SHT31;55953;51.650;-0.522;2022-12-10T11:15:37;0.84;86.31
68912;SHT31;55953;51.650;-0.522;2022-12-10T11:18:22;0.89;86.24
68912;SHT31;55953;51.650;-0.522;2022-12-10T11:21:07;0.96;86.21
68912;SHT31;55953;51.650;-0.522;2022-12-10T11:23:47;1.05;86.22
68912;SHT31;55953;51.650;-0.522;2022-12-10T11:26:39;1.14;86.17
68912;SHT31;55953;51.650;-0.522;2022-12-10T11:29:51;1.21;86.18
68912;SHT31;55953;51.650;-0.522;2022-12-10T11:32:38;1.29;86.15
68912;SHT31;55953;51.650;-0.522;2022-12-10T11:37:51;1.44;86.00
68912;SHT31;55953;51.650;-0.522;2022-12-10T11:40:55;1.58;85.89
68912;SHT31;55953;51.650;-0.522;2022-12-10T11:46:51;1.70;85.97
68912;SHT31;55953;51.650;-0.522;2022-12-10T11:53:22;1.87;86.19
68912;SHT31;55953;51.650;-0.522;2022-12-10T11:56:19;2.01;86.02
68912;SHT31;55953;51.650;-0.522;2022-12-10T12:01:28;2.02;86.02
68912;SHT31;55953;51.650;-0.522;2022-12-10T12:10:28;2.28;85.96
68912;SHT31;55953;51.650;-0.522;2022-12-10T12:13:27;2.30;85.87
68912;SHT31;55953;51.650;-0.522;2022-12-10T12:16:51;2.38;85.95
68912;SHT31;55953;51.650;-0.522;2022-12-10T12:19:09;2.45;85.73
68912;SHT31;55953;51.650;-0.522;2022-12-10T12:21:47;2.51;85.74
68912;SHT31;55953;51.650;-0.522;2022-12-10T12:24:20;2.61;85.69
68912;SHT31;55953;51.650;-0.522;2022-12-10T12:32:45;2.72;85.14
68912;SHT31;55953;51.650;-0.522;2022-12-10T12:35:22;2.75;85.21
68912;SHT31;55953;51.650;-0.522;2022-12-10T12:38:19;2.80;85.11
68912;SHT31;55953;51.650;-0.522;2022-12-10T12:43:43;2.76;85.18
68912;SHT31;55953;51.650;-0.522;2022-12-10T12:46:33;2.77;85.26
68912;SHT31;55953;51.650;-0.522;2022-12-10T12:52:00;2.82;85.44
68912;SHT31;55953;51.650;-0.522;2022-12-10T12:54:37;2.89;85.27
68912;SHT31;55953;51.650;-0.522;2022-12-10T12:57:10;2.88;85.17
68912;SHT31;55953;51.650;-0.522;2022-12-10T13:00:00;2.89;85.25
68912;SHT31;55953;51.650;-0.522;2022-12-10T13:05:33;2.91;85.34
68912;SHT31;55953;51.650;-0.522;2022-12-10T13:10:50;3.02;84.96
68912;SHT31;55953;51.650;-0.522;2022-12-10T13:13:27;2.98;84.87
68912;SHT31;55953;51.650;-0.522;2022-12-10T13:24:19;3.00;84.73
68912;SHT31;55953;51.650;-0.522;2022-12-10T13:32:17;2.91;85.11
68912;SHT31;55953;51.650;-0.522;2022-12-10T13:38:04;2.98;85.14
68912;SHT31;55953;51.650;-0.522;2022-12-10T13:40:56;2.97;85.19
68912;SHT31;55953;51.650;-0.522;2022-12-10T13:43:59;2.95;85.08
68912;SHT31;55953;51.650;-0.522;2022-12-10T13:46:51;2.98;85.22
68912;SHT31;55953;51.650;-0.522;2022-12-10T13:49:20;2.96;85.00
68912;SHT31;55953;51.650;-0.522;2022-12-10T13:51:57;2.97;85.18
68912;SHT31;55953;51.650;-0.522;2022-12-10T13:57:43;2.95;85.08
68912;SHT31;55953;51.650;-0.522;2022-12-10T14:00:29;2.96;85.21
68912;SHT31;55953;51.650;-0.522;2022-12-10T14:06:24;2.89;85.13
68912;SHT31;55953;51.650;-0.522;2022-12-10T14:08:58;2.86;85.12
68912;SHT31;55953;51.650;-0.522;2022-12-10T14:11:34;2.82;85.24
68912;SHT31;55953;51.650;-0.522;2022-12-10T14:14:10;2.83;85.27
68912;SHT31;55953;51.650;-0.522;2022-12-10T14:16:45;2.82;85.31
68912;SHT31;55953;51.650;-0.522;2022-12-10T14:19:13;2.81;85.28
68912;SHT31;55953;51.650;-0.522;2022-12-10T14:21:43;2.73;85.19
68912;SHT31;55953;51.650;-0.522;2022-12-10T14:24:27;2.68;85.32
68912;SHT31;55953;51.650;-0.522;2022-12-10T14:27:02;2.66;85.34
68912;SHT31;55953;51.650;-0.522;2022-12-10T14:29:45;2.63;85.32
68912;SHT31;55953;51.650;-0.522;2022-12-10T14:32:18;2.60;85.41
68912;SHT31;55953;51.650;-0.522;2022-12-10T14:34:55;2.61;85.37
68912;SHT31;55953;51.650;-0.522;2022-12-10T14:37:26;2.59;85.34
68912;SHT31;55953;51.650;-0.522;2022-12-10T14:39:59;2.59;85.41
68912;SHT31;55953;51.650;-0.522;2022-12-10T14:42:27;2.56;85.33
68912;SHT31;55953;51.650;-0.522;2022-12-10T14:44:59;2.52;85.32
68912;SHT31;55953;51.650;-0.522;2022-12-10T14:47:37;2.45;85.37
68912;SHT31;55953;51.650;-0.522;2022-12-10T14:50:15;2.39;85.48
68912;SHT31;55953;51.650;-0.522;2022-12-10T14:52:45;2.37;85.70
68912;SHT31;55953;51.650;-0.522;2022-12-10T14:55:20;2.41;85.64
68912;SHT31;55953;51.650;-0.522;2022-12-10T14:57:52;2.40;85.44
68912;SHT31;55953;51.650;-0.522;2022-12-10T15:00:26;2.38;85.56
68912;SHT31;55953;51.650;-0.522;2022-12-10T15:02:58;2.38;85.49
68912;SHT31;55953;51.650;-0.522;2022-12-10T15:05:34;2.39;85.44
68912;SHT31;55953;51.650;-0.522;2022-12-10T15:08:04;2.40;85.38
68912;SHT31;55953;51.650;-0.522;2022-12-10T15:10:44;2.32;85.21
68912;SHT31;55953;51.650;-0.522;2022-12-10T15:13:20;2.26;85.44
68912;SHT31;55953;51.650;-0.522;2022-12-10T15:15:51;2.19;85.49
68912;SHT31;55953;51.650;-0.522;2022-12-10T15:18:24;2.18;85.65
68912;SHT31;55953;51.650;-0.522;2022-12-10T15:21:18;2.15;85.57
68912;SHT31;55953;51.650;-0.522;2022-12-10T15:23:49;2.09;85.49
68912;SHT31;55953;51.650;-0.522;2022-12-10T15:26:35;2.04;85.46
68912;SHT31;55953;51.650;-0.522;2022-12-10T15:29:46;2.00;85.48
68912;SHT31;55953;51.650;-0.522;2022-12-10T15:31:55;1.89;85.43
68912;SHT31;55953;51.650;-0.522;2022-12-10T15:34:40;1.80;85.55
68912;SHT31;55953;51.650;-0.522;2022-12-10T15:37:19;1.75;85.54
68912;SHT31;55953;51.650;-0.522;2022-12-10T15:39:53;1.71;85.58
68912;SHT31;55953;51.650;-0.522;2022-12-10T15:42:43;1.63;85.43
68912;SHT31;55953;51.650;-0.522;2022-12-10T15:45:16;1.50;85.62
68912;SHT31;55953;51.650;-0.522;2022-12-10T15:47:58;1.40;85.53
68912;SHT31;55953;51.650;-0.522;2022-12-10T15:50:26;1.32;85.55
68912;SHT31;55953;51.650;-0.522;2022-12-10T15:52:56;1.25;85.67
68912;SHT31;55953;51.650;-0.522;2022-12-10T15:55:23;1.28;85.75
68912;SHT31;55953;51.650;-0.522;2022-12-10T15:57:51;1.29;85.56
68912;SHT31;55953;51.650;-0.522;2022-12-10T16:00:20;1.26;85.48
68912;SHT31;55953;51.650;-0.522;2022-12-10T16:02:57;1.23;85.32
68912;SHT31;55953;51.650;-0.522;2022-12-10T16:05:33;1.13;85.05
68912;SHT31;55953;51.650;-0.522;2022-12-10T16:08:15;1.04;85.06
68912;SHT31;55953;51.650;-0.522;2022-12-10T16:10:47;0.96;85.01
68912;SHT31;55953;51.650;-0.522;2022-12-10T16:13:18;0.84;85.34
68912;SHT31;55953;51.650;-0.522;2022-12-10T16:15:57;0.69;85.81
68912;SHT31;55953;51.650;-0.522;2022-12-10T16:18:28;0.57;86.34
68912;SHT31;55953;51.650;-0.522;2022-12-10T16:21:00;0.53;86.08
68912;SHT31;55953;51.650;-0.522;2022-12-10T16:23:28;0.46;86.00
68912;SHT31;55953;51.650;-0.522;2022-12-10T16:25:56;0.34;85.87
68912;SHT31;55953;51.650;-0.522;2022-12-10T16:28:25;0.26;86.34
68912;SHT31;55953;51.650;-0.522;2022-12-10T16:30:57;0.25;86.44
68912;SHT31;55953;51.650;-0.522;2022-12-10T16:33:26;0.31;86.41
68912;SHT31;55953;51.650;-0.522;2022-12-10T16:35:55;0.31;86.22
68912;SHT31;55953;51.650;-0.522;2022-12-10T16:38:29;0.33;86.30
68912;SHT31;55953;51.650;-0.522;2022-12-10T16:40:57;0.29;86.12
68912;SHT31;55953;51.650;-0.522;2022-12-10T16:43:26;0.26;86.07
68912;SHT31;55953;51.650;-0.522;2022-12-10T16:45:56;0.10;86.02
68912;SHT31;55953;51.650;-0.522;2022-12-10T16:48:24;0.03;86.29
68912;SHT31;55953;51.650;-0.522;2022-12-10T16:50:52;0.01;86.41
68912;SHT31;55953;51.650;-0.522;2022-12-10T16:53:34;0.05;86.48
68912;SHT31;55953;51.650;-0.522;2022-12-10T16:56:03;-0.01;86.36
68912;SHT31;55953;51.650;-0.522;2022-12-10T16:58:32;-0.04;86.44
68912;SHT31;55953;51.650;-0.522;2022-12-10T17:00:59;0.02;86.66
68912;SHT31;55953;51.650;-0.522;2022-12-10T17:03:28;0.00;86.26
68912;SHT31;55953;51.650;-0.522;2022-12-10T17:05:58;-0.11;86.10
68912;SHT31;55953;51.650;-0.522;2022-12-10T17:08:31;-0.17;86.09
68912;SHT31;55953;51.650;-0.522;2022-12-10T17:10:59;-0.20;86.23
68912;SHT31;55953;51.650;-0.522;2022-12-10T17:13:45;-0.25;86.46
68912;SHT31;55953;51.650;-0.522;2022-12-10T17:16:14;-0.31;86.72
68912;SHT31;55953;51.650;-0.522;2022-12-10T17:18:48;-0.39;86.68
68912;SHT31;55953;51.650;-0.522;2022-12-10T17:21:16;-0.44;86.57
68912;SHT31;55953;51.650;-0.522;2022-12-10T17:23:44;-0.41;86.77
68912;SHT31;55953;51.650;-0.522;2022-12-10T17:26:18;-0.46;86.66
68912;SHT31;55953;51.650;-0.522;2022-12-10T17:28:58;-0.43;86.94
68912;SHT31;55953;51.650;-0.522;2022-12-10T17:31:32;-0.42;86.60
68912;SHT31;55953;51.650;-0.522;2022-12-10T17:34:00;-0.50;86.51
68912;SHT31;55953;51.650;-0.522;2022-12-10T17:36:28;-0.54;86.55
68912;SHT31;55953;51.650;-0.522;2022-12-10T17:38:55;-0.57;86.66
68912;SHT31;55953;51.650;-0.522;2022-12-10T17:41:23;-0.51;86.98
68912;SHT31;55953;51.650;-0.522;2022-12-10T17:43:51;-0.50;86.80